Time;durP1;ratioP1;P1;durP2;ratioP2;P2;SDS_P1;SDS_P2;PMS_P1;PMS_P2;Temp;Humidity;BMP_temperature;BMP_pressure;BME280_temperature;BME280_humidity;BME280_pressure;Samples;Min_cycle;Max_cycle;Signal;HPM_P1;HPM_P2
2022/06/06 00:01:21;;;;;;;4.67;3.27;;;;;;;17.99;78.20;98825.94;5092040;28;20225;-54
2022/06/06 00:03:49;;;;;;;3.60;3.30;;;;;;;17.87;79.10;98827.50;5093412;28;20186;-52
2022/06/06 00:06:19;;;;;;;4.13;2.83;;;;;;;17.76;79.68;98829.66;5093488;28;20194;-52
2022/06/06 00:08:47;;;;;;;6.07;3.60;;;;;;;17.73;80.10;98823.94;5093056;28;20206;-51
2022/06/06 00:11:15;;;;;;;4.60;2.97;;;;;;;17.74;79.77;98823.75;5093242;28;20241;-52
2022/06/06 00:13:45;;;;;;;4.83;3.47;;;;;;;17.80;79.99;98825.63;5093070;28;20281;-52
2022/06/06 00:16:12;;;;;;;5.87;3.47;;;;;;;17.81;79.87;98818.50;5091826;28;20355;-53
2022/06/06 00:18:41;;;;;;;4.63;4.07;;;;;;;17.88;79.55;98815.91;5092605;28;20205;-54
2022/06/06 00:21:11;;;;;;;7.27;3.37;;;;;;;17.90;79.72;98819.19;5092852;28;20239;-52
2022/06/06 00:23:40;;;;;;;7.67;3.33;;;;;;;17.90;79.00;98819.19;5093056;28;20176;-52
2022/06/06 00:26:08;;;;;;;6.80;3.27;;;;;;;17.90;79.61;98819.19;5093347;28;20605;-54
2022/06/06 00:28:36;;;;;;;5.63;3.70;;;;;;;17.88;79.31;98813.28;5092854;28;20648;-53
2022/06/06 00:36:32;;;;;;;4.93;3.47;;;;;;;17.91;78.78;98812.88;5092857;28;20188;-51
2022/06/06 00:38:59;;;;;;;4.77;3.30;;;;;;;17.99;77.07;98813.56;5092642;28;20617;-53
2022/06/06 00:41:26;;;;;;;5.17;2.97;;;;;;;18.00;77.42;98820.47;5092693;28;20216;-52
2022/06/06 00:44:05;;;;;;;6.83;2.90;;;;;;;17.97;78.07;98820.03;5092099;28;20698;-52
2022/06/06 00:46:35;;;;;;;6.73;3.37;;;;;;;17.99;78.50;98813.56;5093109;28;20275;-51
2022/06/06 00:49:06;;;;;;;3.77;3.17;;;;;;;17.95;78.50;98809.66;5092652;28;20207;-53
2022/06/06 00:51:35;;;;;;;4.17;3.13;;;;;;;17.91;78.36;98813.69;5093074;28;20191;-52
2022/06/06 00:54:06;;;;;;;5.00;3.30;;;;;;;17.87;78.75;98807.16;5091658;28;20287;-54
2022/06/06 00:56:39;;;;;;;6.90;3.50;;;;;;;17.83;79.00;98809.38;5093096;28;20164;-53
2022/06/06 00:59:14;;;;;;;3.40;3.10;;;;;;;17.81;79.37;98808.78;5092319;28;20237;-54
2022/06/06 01:01:42;;;;;;;5.13;3.07;;;;;;;17.87;79.34;98809.00;5092449;28;20237;-54
2022/06/06 01:04:13;;;;;;;3.70;3.30;;;;;;;17.71;80.65;98805.66;5092504;28;20187;-54
2022/06/06 01:06:45;;;;;;;4.97;3.00;;;;;;;17.67;81.08;98812.31;5092750;28;20241;-53
2022/06/06 01:09:12;;;;;;;6.60;2.83;;;;;;;17.63;82.28;98798.69;5092283;28;20264;-52
2022/06/06 01:11:43;;;;;;;4.83;3.20;;;;;;;17.52;82.82;98794.75;5092580;28;20514;-52
2022/06/06 01:14:14;;;;;;;5.87;3.40;;;;;;;17.45;83.74;98793.09;5093954;28;20199;-53
2022/06/06 01:16:51;;;;;;;4.23;3.47;;;;;;;17.40;84.43;98791.84;5092150;28;20206;-52
2022/06/06 01:19:43;;;;;;;5.60;3.20;;;;;;;17.36;85.16;98787.13;5092212;28;20686;-53
2022/06/06 01:22:39;;;;;;;4.47;2.90;;;;;;;17.31;85.10;98790.34;5092402;28;20207;-54
2022/06/06 01:25:37;;;;;;;3.40;3.03;;;;;;;17.22;86.30;98792.28;5090830;28;20241;-51
2022/06/06 01:28:09;;;;;;;5.97;3.53;;;;;;;17.26;86.43;98784.81;5090756;28;20222;-53
2022/06/06 01:30:42;;;;;;;3.73;3.27;;;;;;;17.18;87.46;98783.13;5092373;28;20182;-52
2022/06/06 01:33:14;;;;;;;4.70;3.40;;;;;;;17.13;87.51;98793.41;5092403;28;20254;-52
2022/06/06 01:35:44;;;;;;;3.63;3.33;;;;;;;17.07;88.37;98794.16;5092405;28;20204;-52
2022/06/06 01:38:14;;;;;;;7.00;3.50;;;;;;;17.13;88.48;98795.25;5092114;28;20227;-52
2022/06/06 01:40:47;;;;;;;5.83;3.70;;;;;;;17.07;89.54;98795.00;5092258;28;20196;-53
2022/06/06 01:43:19;;;;;;;5.87;3.70;;;;;;;16.97;90.79;98800.56;5092437;28;20220;-52
2022/06/06 01:45:51;;;;;;;6.40;3.63;;;;;;;16.94;89.91;98793.03;5092228;28;20245;-52
2022/06/06 01:48:22;;;;;;;5.03;3.50;;;;;;;16.92;90.62;98794.22;5091942;28;20677;-52
2022/06/06 01:50:49;;;;;;;4.83;3.70;;;;;;;16.92;91.63;98791.56;5092400;28;20202;-52
2022/06/06 01:53:19;;;;;;;3.63;3.33;;;;;;;16.88;91.94;98788.50;5092062;28;20176;-54
2022/06/06 01:55:50;;;;;;;8.60;4.10;;;;;;;16.87;91.62;98786.03;5095510;28;20687;-52
2022/06/06 01:58:21;;;;;;;5.10;3.50;;;;;;;16.82;91.94;98784.00;5095809;28;20297;-52
2022/06/06 02:00:51;;;;;;;9.50;3.40;;;;;;;16.80;92.85;98784.16;5095932;28;20174;-53
2022/06/06 02:03:19;;;;;;;6.27;4.07;;;;;;;16.79;92.71;98784.38;5095578;28;20301;-52
2022/06/06 02:05:46;;;;;;;6.70;3.50;;;;;;;16.77;92.38;98783.72;5095716;28;20186;-53
2022/06/06 02:08:15;;;;;;;5.67;3.50;;;;;;;16.79;91.58;98781.72;5095428;28;20226;-53
2022/06/06 02:10:43;;;;;;;6.53;3.57;;;;;;;16.79;90.36;98779.88;5094215;28;20705;-52
2022/06/06 02:13:09;;;;;;;5.33;3.90;;;;;;;16.92;88.28;98781.03;5095585;28;20184;-52
2022/06/06 02:15:37;;;;;;;5.27;3.63;;;;;;;16.99;87.74;98776.66;5095428;28;20194;-53
2022/06/06 02:18:07;;;;;;;5.17;3.40;;;;;;;17.03;87.68;98788.47;5095190;28;20203;-51
2022/06/06 02:20:35;;;;;;;5.33;3.10;;;;;;;17.09;87.13;98771.06;5095382;28;20196;-53
2022/06/06 02:23:03;;;;;;;5.90;3.90;;;;;;;17.11;86.74;98767.25;5094130;28;20213;-52
2022/06/06 02:25:32;;;;;;;5.67;3.73;;;;;;;17.13;86.67;98760.97;5095401;28;20182;-53
2022/06/06 02:28:01;;;;;;;6.37;3.77;;;;;;;17.10;86.60;98765.63;5094992;28;20562;-52
2022/06/06 02:30:31;;;;;;;5.93;3.50;;;;;;;17.12;86.11;98773.31;5095099;28;20178;-53
2022/06/06 02:32:58;;;;;;;6.50;3.50;;;;;;;17.14;86.37;98765.22;5094537;28;20182;-54
2022/06/06 02:35:29;;;;;;;6.57;3.87;;;;;;;17.16;86.52;98760.59;5096426;28;20195;-53
2022/06/06 02:37:57;;;;;;;5.87;3.70;;;;;;;17.18;85.64;98764.66;5096625;28;20251;-54
2022/06/06 02:40:27;;;;;;;5.60;3.60;;;;;;;17.20;86.24;98760.00;5096707;28;20200;-54
2022/06/06 02:42:55;;;;;;;8.43;4.17;;;;;;;17.27;85.36;98766.16;5095429;28;20206;-52
2022/06/06 02:45:23;;;;;;;8.37;3.87;;;;;;;17.24;85.26;98765.72;5094886;28;20193;-53
2022/06/06 02:47:54;;;;;;;4.70;4.10;;;;;;;17.27;85.15;98766.16;5094320;28;20208;-53
2022/06/06 02:50:25;;;;;;;5.80;4.10;;;;;;;17.24;85.31;98769.16;5094765;28;20199;-52
2022/06/06 02:52:54;;;;;;;6.03;3.90;;;;;;;17.24;85.07;98763.88;5094949;28;20206;-51
2022/06/06 02:55:21;;;;;;;5.60;3.83;;;;;;;17.27;85.45;98773.25;5094657;28;20183;-52
2022/06/06 02:57:52;;;;;;;6.83;3.97;;;;;;;17.24;85.59;98771.00;5094308;28;20683;-52
2022/06/06 03:00:24;;;;;;;7.40;4.10;;;;;;;17.23;85.86;98762.25;5095006;28;20192;-52
2022/06/06 03:02:51;;;;;;;6.97;4.43;;;;;;;17.28;85.46;98780.16;5094282;28;20198;-53
2022/06/06 03:05:19;;;;;;;4.87;3.90;;;;;;;17.26;85.84;98769.00;5094054;28;20190;-52
2022/06/06 03:08:05;;;;;;;4.63;3.97;;;;;;;17.27;85.92;98765.34;5093559;28;20218;-54
2022/06/06 03:10:43;;;;;;;7.23;4.50;;;;;;;17.23;85.74;98764.91;5094737;28;20585;-53
2022/06/06 03:13:26;;;;;;;6.37;4.37;;;;;;;17.22;85.59;98758.00;5094189;28;20181;-52
2022/06/06 03:22:11;;;;;;;6.83;4.00;;;;;;;17.18;85.39;98766.50;5093923;28;20242;-53
2022/06/06 03:24:52;;;;;;;6.73;4.57;;;;;;;17.19;85.26;98770.75;5094152;28;20190;-52
2022/06/06 03:27:28;;;;;;;7.10;3.93;;;;;;;17.17;85.27;98768.28;5094011;28;20193;-54
2022/06/06 03:30:03;;;;;;;5.17;3.97;;;;;;;17.14;84.70;98770.50;5094384;28;20193;-54
2022/06/06 03:32:45;;;;;;;6.43;4.07;;;;;;;17.13;84.71;98780.22;5094536;28;20190;-52
2022/06/06 03:35:21;;;;;;;5.87;4.27;;;;;;;17.13;84.73;98774.94;5094210;28;20212;-53
2022/06/06 03:37:58;;;;;;;6.27;4.00;;;;;;;17.11;84.95;98775.16;5093491;28;20206;-54
2022/06/06 03:40:34;;;;;;;5.50;3.87;;;;;;;17.10;85.33;98780.59;5093670;28;20215;-53
2022/06/06 03:43:09;;;;;;;7.10;4.70;;;;;;;17.10;85.37;98772.69;5093693;28;20303;-52
2022/06/06 03:45:42;;;;;;;5.43;4.43;;;;;;;17.10;85.82;98776.16;5093588;28;20223;-51
2022/06/06 03:48:24;;;;;;;4.83;4.07;;;;;;;17.09;86.14;98782.44;5093182;28;20615;-53
2022/06/06 03:51:02;;;;;;;6.13;4.20;;;;;;;17.14;85.00;98784.50;5093324;28;20244;-52
2022/06/06 03:53:39;;;;;;;9.10;4.47;;;;;;;17.13;85.73;98780.22;5093436;28;20643;-52
2022/06/06 03:56:26;;;;;;;5.20;4.53;;;;;;;17.14;85.29;98775.78;5093623;28;20268;-52
2022/06/06 03:58:54;;;;;;;10.37;4.50;;;;;;;17.20;84.50;98777.66;5093152;28;20213;-52
2022/06/06 04:01:23;;;;;;;7.57;4.60;;;;;;;17.23;84.17;98783.38;5093111;28;20206;-54
2022/06/06 04:03:51;;;;;;;6.97;4.13;;;;;;;17.31;83.93;98787.72;5093466;28;20214;-54
2022/06/06 04:06:19;;;;;;;5.27;4.20;;;;;;;17.39;82.57;98779.66;5093613;28;20194;-53
2022/06/06 04:09:04;;;;;;;5.57;4.13;;;;;;;17.47;83.17;98793.72;5093297;28;20245;-52
2022/06/06 04:11:44;;;;;;;7.23;4.10;;;;;;;17.48;82.79;98777.69;5093844;28;20214;-52
2022/06/06 04:14:22;;;;;;;4.50;4.10;;;;;;;17.51;82.81;98787.00;5093130;28;20201;-52
2022/06/06 04:16:57;;;;;;;7.03;4.47;;;;;;;17.51;82.23;98785.22;5092973;28;20192;-53
2022/06/06 04:19:32;;;;;;;9.03;4.43;;;;;;;17.60;81.74;98790.34;5092827;28;20294;-53
2022/06/06 04:22:10;;;;;;;8.20;4.70;;;;;;;17.61;81.38;98786.69;5093096;28;20182;-52
2022/06/06 04:24:55;;;;;;;8.03;3.87;;;;;;;17.58;81.36;98787.88;5093206;28;20542;-52
2022/06/06 04:27:34;;;;;;;6.20;4.40;;;;;;;17.60;80.89;98787.72;5093128;28;20260;-52
2022/06/06 04:30:06;;;;;;;4.53;4.10;;;;;;;17.61;80.51;98797.25;5093284;28;20206;-52
2022/06/06 04:32:47;;;;;;;7.33;4.20;;;;;;;17.63;79.87;98788.13;5093175;28;20362;-51
2022/06/06 04:35:21;;;;;;;6.67;3.70;;;;;;;17.66;80.72;98793.00;5093110;28;20216;-53
2022/06/06 04:37:54;;;;;;;7.47;3.87;;;;;;;17.65;81.15;98788.75;5092640;28;20315;-54
2022/06/06 04:40:35;;;;;;;7.47;4.03;;;;;;;17.74;78.79;98781.50;5092900;28;20182;-54
2022/06/06 04:43:13;;;;;;;7.97;4.50;;;;;;;17.84;79.34;98783.78;5091665;28;20680;-52
2022/06/06 04:45:49;;;;;;;5.77;3.77;;;;;;;17.92;78.45;98791.56;5091787;28;20187;-52
2022/06/06 04:48:18;;;;;;;5.90;4.33;;;;;;;17.94;77.71;98796.66;5092770;28;20283;-54
2022/06/06 04:50:47;;;;;;;6.53;3.87;;;;;;;17.97;77.36;98794.44;5092751;28;20647;-52
2022/06/06 04:53:18;;;;;;;4.50;4.10;;;;;;;17.88;77.15;98795.59;5092630;28;20240;-53
2022/06/06 04:55:48;;;;;;;8.93;4.67;;;;;;;17.83;76.90;98795.34;5093268;28;20190;-54
2022/06/06 04:58:21;;;;;;;5.27;4.20;;;;;;;17.82;77.55;98801.66;5092517;28;20225;-54
2022/06/06 05:00:48;;;;;;;5.80;3.87;;;;;;;17.84;77.48;98805.75;5092929;28;20732;-54
2022/06/06 05:03:16;;;;;;;6.57;4.07;;;;;;;17.77;77.41;98809.34;5092958;28;20286;-52
2022/06/06 05:05:56;;;;;;;5.00;3.90;;;;;;;17.81;77.13;98802.66;5092655;28;20359;-54
2022/06/06 05:08:35;;;;;;;5.30;4.10;;;;;;;17.80;77.15;98803.66;5093771;28;20213;-54
2022/06/06 05:11:22;;;;;;;6.17;4.10;;;;;;;17.80;76.33;98801.84;5092764;28;20187;-54
2022/06/06 05:14:02;;;;;;;6.30;4.30;;;;;;;17.65;77.78;98809.84;5092461;28;20191;-52
2022/06/06 05:16:43;;;;;;;5.77;4.47;;;;;;;17.75;76.93;98806.91;5092475;28;20597;-52
2022/06/06 05:19:34;;;;;;;5.10;4.20;;;;;;;17.69;77.30;98811.09;5092561;28;20217;-53
2022/06/06 05:22:24;;;;;;;6.07;3.83;;;;;;;17.87;75.94;98807.16;5092439;28;20190;-55
2022/06/06 05:25:29;;;;;;;4.37;3.97;;;;;;;17.92;76.62;98812.69;5092399;28;20178;-53
2022/06/06 05:28:17;;;;;;;5.63;4.13;;;;;;;18.00;75.62;98809.91;5067303;28;20235;-51
2022/06/06 05:30:53;;;;;;;7.43;3.90;;;;;;;18.12;75.20;98818.09;5096518;28;20178;-52
2022/06/06 05:33:28;;;;;;;5.83;3.77;;;;;;;18.04;76.38;98820.09;5096468;28;20192;-54
2022/06/06 05:36:19;;;;;;;5.73;4.13;;;;;;;18.15;76.58;98825.63;5096433;28;20254;-52
2022/06/06 05:39:03;;;;;;;7.50;3.67;;;;;;;18.36;74.65;98823.91;5096057;28;20675;-54
2022/06/06 05:41:42;;;;;;;5.67;3.70;;;;;;;18.41;74.69;98828.63;5096347;28;20268;-52
2022/06/06 05:44:19;;;;;;;4.93;3.63;;;;;;;18.53;74.19;98832.34;5096645;28;20217;-53
2022/06/06 05:46:57;;;;;;;7.80;3.73;;;;;;;18.58;73.83;98829.09;5096308;28;20663;-54
2022/06/06 05:49:39;;;;;;;4.67;3.63;;;;;;;18.61;74.13;98833.13;5096024;28;20207;-52
2022/06/06 05:52:41;;;;;;;6.23;4.00;;;;;;;18.68;73.62;98833.97;5096117;28;20214;-53
2022/06/06 05:55:24;;;;;;;6.87;3.50;;;;;;;18.82;72.00;98834.84;5096423;28;20218;-52
2022/06/06 05:58:14;;;;;;;4.83;3.60;;;;;;;18.89;70.90;98827.75;5095575;28;20221;-52
2022/06/06 06:00:55;;;;;;;4.90;3.67;;;;;;;18.96;70.12;98831.25;5096227;28;20445;-53
2022/06/06 06:03:53;;;;;;;6.20;3.23;;;;;;;19.04;69.32;98840.81;5096207;28;20200;-52
2022/06/06 06:06:27;;;;;;;7.13;4.23;;;;;;;19.17;69.53;98845.31;5096025;28;20189;-52
2022/06/06 06:09:10;;;;;;;5.40;3.73;;;;;;;19.43;67.95;98843.72;5095881;28;20270;-52
2022/06/06 06:11:52;;;;;;;3.70;3.40;;;;;;;19.61;66.75;98849.22;5096258;28;20207;-54
2022/06/06 06:14:35;;;;;;;5.77;3.40;;;;;;;19.65;66.22;98854.91;5096109;28;20199;-52
2022/06/06 06:17:04;;;;;;;4.73;3.07;;;;;;;19.65;66.27;98867.34;5094736;28;20195;-52
2022/06/06 06:19:40;;;;;;;5.97;3.90;;;;;;;19.35;66.85;98860.63;5095851;28;20193;-53
2022/06/06 06:22:09;;;;;;;6.13;3.37;;;;;;;19.43;66.74;98871.00;5096133;28;20210;-52
2022/06/06 06:24:38;;;;;;;6.35;3.80;;;;;;;19.47;67.17;98874.06;5094795;28;20862;-52
2022/06/06 06:27:07;;;;;;;4.33;3.53;;;;;;;19.43;67.01;98875.47;5096139;28;20578;-54
2022/06/06 06:29:35;;;;;;;6.43;3.43;;;;;;;19.63;67.13;98867.53;5095391;28;20204;-52
2022/06/06 06:32:35;;;;;;;7.50;3.67;;;;;;;19.93;66.08;98874.28;5095383;28;20186;-55
2022/06/06 06:35:14;;;;;;;6.90;3.63;;;;;;;20.30;64.17;98874.59;5080907;28;20208;-54
2022/06/06 06:37:56;;;;;;;6.70;3.30;;;;;;;20.61;62.99;98873.91;5095246;28;20254;-52
2022/06/06 06:40:42;;;;;;;5.80;3.33;;;;;;;20.71;63.47;98883.22;5094590;28;20218;-54
2022/06/06 06:43:16;;;;;;;6.90;3.23;;;;;;;21.00;62.88;98886.41;5095350;28;20265;-52
2022/06/06 06:45:50;;;;;;;3.53;3.20;;;;;;;21.32;61.46;98886.41;5095142;28;20215;-54
2022/06/06 06:48:23;;;;;;;5.17;3.17;;;;;;;21.39;61.04;98901.25;5094755;28;20212;-54
2022/06/06 06:51:00;;;;;;;3.50;2.93;;;;;;;21.29;61.14;98903.56;5095020;28;20187;-52
2022/06/06 06:53:57;;;;;;;3.63;3.00;;;;;;;20.86;61.85;98905.03;5094812;28;20224;-54
2022/06/06 06:56:39;;;;;;;5.07;3.07;;;;;;;20.85;61.73;98894.66;5093795;28;20231;-53
2022/06/06 06:59:13;;;;;;;5.53;3.30;;;;;;;20.33;63.64;98898.88;5094311;28;20211;-52
2022/06/06 07:10:32;;;;;;;3.53;3.20;;;;;;;20.50;62.43;98899.22;5094799;28;20190;-52
2022/06/06 07:13:26;;;;;;;5.80;3.30;;;;;;;20.83;62.55;98894.03;5093167;28;20245;-53
2022/06/06 07:15:59;;;;;;;4.70;3.00;;;;;;;21.01;60.01;98895.97;5094552;28;20654;-54
2022/06/06 07:18:33;;;;;;;10.43;3.50;;;;;;;20.83;59.73;98896.69;5094189;28;20700;-54
2022/06/06 07:21:02;;;;;;;4.87;3.00;;;;;;;20.73;62.23;98891.78;5093458;28;20187;-54
2022/06/06 07:23:35;;;;;;;4.97;3.20;;;;;;;21.02;61.45;98892.31;5094468;28;20214;-52
2022/06/06 07:26:04;;;;;;;5.60;3.20;;;;;;;20.92;60.18;98898.09;5094486;28;20192;-55
2022/06/06 07:28:32;;;;;;;4.77;3.07;;;;;;;20.51;60.18;98900.06;5093996;28;20569;-55
2022/06/06 07:31:09;;;;;;;3.93;2.90;;;;;;;20.77;60.65;98885.03;5094342;28;20213;-53
2022/06/06 07:33:58;;;;;;;5.37;3.00;;;;;;;20.80;61.29;98895.25;5094312;28;20643;-52
2022/06/06 07:36:37;;;;;;;12.77;3.60;;;;;;;21.01;58.77;98891.50;5094088;28;20544;-53
2022/06/06 07:39:18;;;;;;;4.43;2.97;;;;;;;20.76;59.87;98892.19;5093867;28;20603;-53
2022/06/06 07:41:59;;;;;;;3.80;2.90;;;;;;;20.92;59.68;98880.31;5094085;28;20189;-52
2022/06/06 07:45:02;;;;;;;8.63;2.93;;;;;;;21.28;58.93;98883.34;5094347;28;20635;-53
2022/06/06 07:47:41;;;;;;;2.70;2.50;;;;;;;21.74;58.42;98877.94;5092358;28;20293;-53
2022/06/06 07:50:20;;;;;;;3.07;2.60;;;;;;;21.95;58.60;98879.38;5093939;28;20516;-53
2022/06/06 07:53:00;;;;;;;4.73;3.00;;;;;;;21.98;58.44;98884.25;5093173;28;20247;-54
2022/06/06 07:55:32;;;;;;;2.93;2.63;;;;;;;21.62;56.25;98875.16;5093710;28;20694;-53
2022/06/06 07:58:09;;;;;;;4.73;3.03;;;;;;;21.76;56.89;98870.56;5093510;28;20210;-53
2022/06/06 08:00:38;;;;;;;4.17;2.87;;;;;;;21.74;57.62;98870.78;5093793;28;20256;-52
2022/06/06 08:03:15;;;;;;;4.23;2.73;;;;;;;21.50;57.21;98875.03;5093643;28;20186;-53
2022/06/06 08:06:04;;;;;;;5.10;2.50;;;;;;;21.31;58.42;98869.66;5093710;28;20191;-53
2022/06/06 08:08:52;;;;;;;7.20;3.27;;;;;;;21.27;58.31;98865.00;5092103;28;20211;-54
2022/06/06 08:11:33;;;;;;;4.10;2.90;;;;;;;21.16;59.15;98863.88;5093662;28;20190;-52
2022/06/06 08:14:07;;;;;;;6.73;3.30;;;;;;;21.20;58.87;98868.50;5093795;28;20249;-52
2022/06/06 08:16:42;;;;;;;3.53;3.10;;;;;;;21.18;58.27;98859.94;5093698;28;20271;-53
2022/06/06 08:19:34;;;;;;;4.70;3.07;;;;;;;21.32;57.45;98850.03;5093563;28;20730;-54
2022/06/06 08:22:02;;;;;;;4.10;3.07;;;;;;;21.18;58.55;98848.53;5093684;28;20628;-53
2022/06/06 08:24:34;;;;;;;7.37;3.00;;;;;;;21.44;57.25;98849.34;5093122;28;20222;-52
2022/06/06 08:27:06;;;;;;;3.23;2.80;;;;;;;21.25;57.30;98843.97;5093198;28;20177;-52
2022/06/06 08:29:37;;;;;;;5.33;3.00;;;;;;;21.13;59.22;98848.38;5093300;28;20199;-52
2022/06/06 08:32:06;;;;;;;3.63;3.00;;;;;;;21.35;56.30;98840.84;5093201;28;20266;-52
2022/06/06 08:34:33;;;;;;;5.00;2.90;;;;;;;21.43;56.52;98845.06;5093393;28;20175;-52
2022/06/06 08:37:32;;;;;;;4.13;3.23;;;;;;;21.30;56.17;98843.34;5093050;28;20270;-54
2022/06/06 08:40:20;;;;;;;3.70;3.30;;;;;;;21.17;57.59;98837.09;5092076;28;20193;-53
2022/06/06 08:43:01;;;;;;;5.93;3.10;;;;;;;21.38;56.62;98837.75;5093283;28;20189;-54
2022/06/06 08:45:48;;;;;;;7.70;3.27;;;;;;;21.53;56.06;98835.59;5092744;28;20686;-52
2022/06/06 08:48:24;;;;;;;10.10;3.30;;;;;;;22.04;53.84;98835.53;5092980;28;20288;-51
2022/06/06 08:51:01;;;;;;;3.47;2.90;;;;;;;21.63;55.89;98832.47;5093241;28;20183;-52
2022/06/06 08:54:23;;;;;;;5.53;2.70;;;;;;;22.19;53.19;98829.06;5093468;28;20182;-52
2022/06/06 08:57:10;;;;;;;3.13;2.80;;;;;;;21.87;54.70;98824.69;5011235;28;20269;-54
2022/06/06 09:00:16;;;;;;;5.27;3.07;;;;;;;22.44;52.57;98841.44;5010589;28;20372;-52
2022/06/06 09:03:08;;;;;;;3.47;2.50;;;;;;;22.46;50.56;98840.22;5092864;28;20192;-54
2022/06/06 09:05:57;;;;;;;3.37;2.50;;;;;;;23.00;50.45;98842.19;5096481;28;20194;-52
2022/06/06 09:09:00;;;;;;;6.83;2.73;;;;;;;22.67;50.54;98843.44;5098019;28;20592;-54
2022/06/06 09:12:03;;;;;;;2.93;2.20;;;;;;;22.64;51.56;98838.56;5098970;28;20217;-55
2022/06/06 09:15:13;;;;;;;6.37;2.40;;;;;;;23.18;49.98;98843.16;5099071;28;20644;-52
2022/06/06 09:18:11;;;;;;;6.23;2.37;;;;;;;23.55;49.19;98837.66;5088049;28;20223;-53
2022/06/06 09:20:50;;;;;;;5.53;1.97;;;;;;;23.56;48.69;98849.94;5096870;28;20250;-52
2022/06/06 09:23:37;;;;;;;1.90;1.47;;;;;;;23.47;47.02;98838.00;5096704;28;20191;-54
2022/06/06 09:26:23;;;;;;;5.30;2.10;;;;;;;23.91;44.83;98841.13;5096640;28;20180;-52
2022/06/06 09:29:34;;;;;;;2.60;1.90;;;;;;;23.19;48.01;98837.59;5096399;28;20215;-52
2022/06/06 09:32:44;;;;;;;3.67;1.83;;;;;;;23.89;47.99;98829.91;5096284;28;20182;-54
2022/06/06 09:35:46;;;;;;;2.87;1.73;;;;;;;24.05;47.06;98824.94;5096479;28;20202;-54
2022/06/06 09:38:22;;;;;;;3.63;1.80;;;;;;;24.32;46.01;98823.38;5094753;28;20290;-54
2022/06/06 09:41:10;;;;;;;4.63;2.43;;;;;;;24.59;44.44;98819.31;5096352;28;20185;-54
2022/06/06 09:43:55;;;;;;;2.73;2.50;;;;;;;24.46;45.06;98813.22;5096481;28;20267;-54
2022/06/06 09:46:51;;;;;;;3.20;1.80;;;;;;;24.34;47.60;98819.66;5096489;28;20177;-55
2022/06/06 09:49:56;;;;;;;3.07;1.80;;;;;;;24.39;44.61;98815.22;5095994;28;20306;-54
2022/06/06 09:53:04;;;;;;;3.23;1.70;;;;;;;24.47;43.13;98814.84;5096530;28;20273;-54
2022/06/06 09:59:22;;;;;;;2.47;2.20;;;;;;;24.49;43.98;98787.91;5095779;28;20209;-52
2022/06/06 10:02:23;;;;;;;2.80;1.70;;;;;;;23.70;44.68;98810.56;5092283;28;20213;-52
2022/06/06 10:05:18;;;;;;;4.00;2.10;;;;;;;23.98;45.31;98799.16;5095673;28;20234;-55
2022/06/06 10:08:17;;;;;;;3.57;1.80;;;;;;;24.53;40.81;98789.06;5094236;28;20216;-55
2022/06/06 10:11:12;;;;;;;3.00;1.57;;;;;;;25.39;41.92;98787.31;5095975;28;20190;-52
2022/06/06 10:13:55;;;;;;;3.83;1.53;;;;;;;25.27;41.64;98786.59;5095545;28;20287;-54
2022/06/06 10:16:45;;;;;;;2.30;2.00;;;;;;;25.22;42.04;98791.84;5096041;28;20572;-52
2022/06/06 10:19:35;;;;;;;3.97;1.60;;;;;;;24.94;41.61;98793.53;5095419;28;20267;-54
2022/06/06 10:22:21;;;;;;;4.50;1.80;;;;;;;24.15;42.84;98795.81;5095668;28;20611;-54
2022/06/06 10:25:06;;;;;;;3.63;1.70;;;;;;;23.88;42.34;98806.94;5095685;28;20534;-53
2022/06/06 10:27:53;;;;;;;2.83;1.67;;;;;;;24.57;42.96;98792.88;5095166;28;20623;-54
2022/06/06 10:30:24;;;;;;;3.43;1.60;;;;;;;24.81;42.84;98792.78;5095200;28;20346;-52
2022/06/06 10:33:16;;;;;;;3.10;1.50;;;;;;;24.50;41.31;98792.19;5095235;28;20181;-53
2022/06/06 10:35:54;;;;;;;4.23;1.83;;;;;;;23.97;43.70;98792.22;5094956;28;20189;-54
2022/06/06 10:38:49;;;;;;;2.70;1.93;;;;;;;23.79;42.75;98795.03;5094760;28;20212;-52
2022/06/06 10:41:34;;;;;;;6.70;1.60;;;;;;;23.30;46.07;98788.09;5095193;28;20704;-53
2022/06/06 10:44:23;;;;;;;3.40;2.10;;;;;;;23.90;47.13;98796.88;5095159;28;20185;-52
2022/06/06 10:47:05;;;;;;;4.03;2.23;;;;;;;24.14;44.60;98792.31;5094994;28;20588;-53
2022/06/06 10:49:42;;;;;;;3.33;1.50;;;;;;;24.81;42.93;98802.66;5094811;28;20192;-52
2022/06/06 10:52:46;;;;;;;5.97;1.70;;;;;;;24.69;40.40;98792.00;5093608;28;20287;-52
2022/06/06 10:55:46;;;;;;;3.73;1.77;;;;;;;24.01;42.59;98792.56;5094920;28;20211;-54
2022/06/06 10:58:59;;;;;;;2.83;1.80;;;;;;;24.05;44.91;98790.25;5092381;28;20258;-52
2022/06/06 11:02:06;;;;;;;1.93;1.77;;;;;;;24.62;42.40;98786.81;5094753;28;20188;-52
2022/06/06 11:05:08;;;;;;;5.93;2.50;;;;;;;24.31;43.99;98776.41;5094491;28;20211;-54
2022/06/06 11:08:11;;;;;;;3.87;2.40;;;;;;;24.44;45.55;98777.13;5094490;28;20205;-52
2022/06/06 11:10:59;;;;;;;4.57;2.30;;;;;;;24.64;44.21;98775.91;5094730;28;20438;-52
2022/06/06 11:13:40;;;;;;;4.57;2.43;;;;;;;24.64;44.65;98787.41;5094644;28;20283;-52
2022/06/06 11:16:39;;;;;;;2.83;2.13;;;;;;;25.04;44.26;98786.50;5093286;28;20200;-54
2022/06/06 11:19:48;;;;;;;5.57;2.70;;;;;;;24.57;44.66;98782.19;5094050;28;20684;-52
2022/06/06 11:22:25;;;;;;;2.40;2.20;;;;;;;23.89;46.76;98779.25;5094227;28;20265;-54
2022/06/06 11:25:02;;;;;;;4.30;2.27;;;;;;;24.36;46.10;98775.66;5094186;28;20561;-52
2022/06/06 11:28:14;;;;;;;6.40;2.43;;;;;;;24.55;45.25;98778.94;5093109;28;20207;-54
2022/06/06 11:31:10;;;;;;;3.37;2.37;;;;;;;23.98;47.79;98779.69;5014995;28;20614;-54
2022/06/06 11:34:15;;;;;;;3.17;2.20;;;;;;;23.91;46.55;98771.81;5090535;28;20223;-54
2022/06/06 11:37:31;;;;;;;3.33;2.80;;;;;;;24.14;47.27;98765.66;5092627;28;20197;-52
2022/06/06 11:40:37;;;;;;;4.13;2.83;;;;;;;24.39;47.48;98772.53;4999711;28;20202;-53
2022/06/06 11:43:30;;;;;;;5.23;2.43;;;;;;;24.40;47.75;98768.81;5011631;28;20185;-52
2022/06/06 11:46:17;;;;;;;3.00;2.70;;;;;;;24.57;46.54;98766.19;5093995;28;20309;-54
2022/06/06 11:49:19;;;;;;;4.30;2.40;;;;;;;24.95;46.80;98760.44;5093163;28;20338;-53
2022/06/06 11:52:28;;;;;;;2.73;2.27;;;;;;;24.70;47.07;98769.59;5094084;28;20600;-52
2022/06/06 11:55:21;;;;;;;8.33;2.47;;;;;;;24.46;46.96;98761.69;5093477;28;20557;-53
2022/06/06 11:58:14;;;;;;;5.10;2.60;;;;;;;24.28;47.67;98760.88;5093482;28;20206;-53
2022/06/06 12:01:05;;;;;;;3.93;2.60;;;;;;;24.85;48.03;98756.56;5070765;28;20558;-54
2022/06/06 12:04:18;;;;;;;2.83;2.63;;;;;;;24.76;47.69;98758.00;5092458;28;20260;-55
2022/06/06 12:07:27;;;;;;;5.00;2.60;;;;;;;24.81;47.08;98751.94;4994615;28;20291;-53
2022/06/06 12:10:04;;;;;;;2.37;2.17;;;;;;;25.13;46.68;98743.34;4994735;28;20197;-53
2022/06/06 12:12:56;;;;;;;2.87;2.10;;;;;;;25.09;44.93;98742.22;5081442;28;20199;-53
2022/06/06 12:15:46;;;;;;;9.03;2.10;;;;;;;24.84;46.68;98732.78;5093538;28;20190;-52
2022/06/06 12:18:44;;;;;;;3.10;1.80;;;;;;;24.60;44.44;98738.22;5091583;28;20217;-52
2022/06/06 12:21:49;;;;;;;6.00;2.50;;;;;;;24.84;44.56;98738.13;5093192;28;20187;-52
2022/06/06 12:24:44;;;;;;;6.93;1.90;;;;;;;25.18;43.81;98730.09;5093219;28;20182;-52
2022/06/06 12:27:32;;;;;;;2.93;2.07;;;;;;;25.30;43.44;98735.34;5089629;28;20231;-54
2022/06/06 12:30:31;;;;;;;2.13;1.73;;;;;;;25.88;42.99;98722.50;5093125;28;20597;-52
2022/06/06 12:33:02;;;;;;;3.33;1.87;;;;;;;25.94;41.67;98720.69;5072798;28;20278;-52
2022/06/06 12:35:41;;;;;;;3.77;1.87;;;;;;;25.39;41.76;98720.53;5092790;28;20180;-54
2022/06/06 12:38:31;;;;;;;5.43;2.00;;;;;;;24.90;42.79;98713.91;5091201;28;20237;-52
2022/06/06 12:41:20;;;;;;;4.47;1.97;;;;;;;24.55;42.89;98719.44;5091165;28;20235;-52
2022/06/06 12:44:01;;;;;;;3.10;1.87;;;;;;;24.13;45.45;98726.69;5092746;28;20267;-54
2022/06/06 12:46:57;;;;;;;4.33;1.90;;;;;;;23.66;44.48;98722.28;5092540;28;20684;-54
2022/06/06 12:49:56;;;;;;;2.27;1.50;;;;;;;23.35;45.21;98718.13;5091003;28;20210;-52
2022/06/06 12:53:02;;;;;;;3.50;1.33;;;;;;;22.58;46.72;98712.59;5091639;28;20536;-52
2022/06/06 12:55:47;;;;;;;4.70;1.73;;;;;;;22.41;47.31;98707.06;5092553;28;20219;-51
2022/06/06 12:58:29;;;;;;;2.13;1.90;;;;;;;22.05;51.00;98709.59;5092186;28;20287;-52
2022/06/06 13:04:10;;;;;;;5.80;2.07;;;;;;;21.78;49.43;98698.47;5092903;28;20303;-51
2022/06/06 13:06:44;;;;;;;4.57;1.83;;;;;;;21.58;49.75;98696.81;5092528;28;20256;-51